Pond Inlet, Canada
Current Conditions -  °F | °C
As of 10:00 AM on Thursday 30 Oct 2014 (Local Time) from CYIO Reporting Station
Light Snow Light Snow  
Wind Chill:   Ceiling: 7500
Heat Index: 14°   Visibility: 9mi
Dew Point: 12°   Wind: 12mph
Humidity: 93%   Direction: 190°S
Pressure: 29.92"   Gusts: NA
Location:  72.7°N, 78°W
Report Text: CYIO 301400Z AUTO 19010KT 9SM -SN OVC075 M10/M11 A2992 RMK SLP140
Loading
Personal Weather Stations






























Interactive Weather Map
Tropical Storm Tracking
New forecast layout! Learn more

10-Day Weather Forecast

Advertisements
Track Severe Weather on mobile